createdAt,value
2019-02-21T00:00:23.774Z,60.68
2019-02-21T00:04:23.544Z,60.73
2019-02-21T00:08:29.523Z,60.45
2019-02-21T00:12:34.417Z,60.62
2019-02-21T00:16:39.310Z,60.33
2019-02-21T00:20:44.204Z,60.80
2019-02-21T00:24:49.104Z,60.96
2019-02-21T00:28:54.000Z,60.99
2019-02-21T00:32:58.898Z,61.11
2019-02-21T00:37:04.856Z,61.12
2019-02-21T00:41:09.754Z,61.19
2019-02-21T00:45:14.653Z,61.19
2019-02-21T00:49:19.555Z,61.28
2019-02-21T00:53:24.450Z,61.39
2019-02-21T00:57:29.331Z,62.03
2019-02-21T01:01:34.222Z,62.32
2019-02-21T01:05:39.128Z,62.59
2019-02-21T01:09:44.025Z,62.67
2019-02-21T01:13:48.990Z,63.17
2019-02-21T01:17:53.870Z,63.55
2019-02-21T01:21:58.769Z,63.40
2019-02-21T01:26:03.669Z,63.05
2019-02-21T01:30:08.936Z,62.79
2019-02-21T01:34:13.829Z,62.33
2019-02-21T01:38:18.707Z,62.37
2019-02-21T01:42:23.618Z,62.11
2019-02-21T01:46:28.520Z,61.80
2019-02-21T01:50:33.418Z,61.93
2019-02-21T01:54:38.309Z,61.63
2019-02-21T01:58:43.196Z,61.94
2019-02-21T02:02:48.087Z,62.43
2019-02-21T02:06:53.062Z,63.56
2019-02-21T02:10:57.951Z,64.29
2019-02-21T02:15:02.848Z,64.29
2019-02-21T02:19:08.077Z,64.10
2019-02-21T02:23:12.986Z,63.84
2019-02-21T02:27:17.888Z,63.41
2019-02-21T02:31:23.790Z,63.35
2019-02-21T02:35:28.860Z,63.48
2019-02-21T02:39:33.744Z,63.26
2019-02-21T02:43:38.635Z,63.09
2019-02-21T02:47:43.538Z,63.37
2019-02-21T02:51:48.422Z,63.73
2019-02-21T02:55:53.325Z,63.87
2019-02-21T02:59:58.205Z,64.04
2019-02-21T03:04:03.133Z,64.76
2019-02-21T03:08:08.014Z,65.12
2019-02-21T03:12:12.915Z,65.38
2019-02-21T03:16:18.784Z,65.60
2019-02-21T03:20:23.670Z,65.75
2019-02-21T03:24:28.568Z,65.92
2019-02-21T03:28:33.459Z,66.20
2019-02-21T03:32:38.355Z,66.84
2019-02-21T03:36:43.254Z,67.06
2019-02-21T03:40:48.146Z,67.82
2019-02-21T03:44:53.034Z,68.05
2019-02-21T03:48:57.932Z,68.84
2019-02-21T03:53:02.831Z,69.25
2019-02-21T03:57:07.799Z,69.17
2019-02-21T04:01:12.690Z,69.50
2019-02-21T04:05:17.599Z,69.60
2019-02-21T04:09:22.568Z,69.60
2019-02-21T04:13:27.467Z,69.33
2019-02-21T04:17:32.375Z,69.10
2019-02-21T04:21:37.255Z,68.97
2019-02-21T04:25:42.152Z,68.82
2019-02-21T04:29:47.043Z,68.94
2019-02-21T04:33:51.942Z,68.91
2019-02-21T04:37:56.836Z,68.58
2019-02-21T04:42:01.724Z,68.35
2019-02-21T04:46:06.628Z,68.55
2019-02-21T04:50:11.526Z,68.84
2019-02-21T04:54:16.422Z,68.58
2019-02-21T04:58:21.318Z,67.91
2019-02-21T05:02:29.489Z,67.65
2019-02-21T05:06:32.800Z,67.02
2019-02-21T05:10:37.756Z,66.61
2019-02-21T05:14:42.593Z,66.11
2019-02-21T05:18:47.500Z,65.90
2019-02-21T05:22:52.395Z,65.41
2019-02-21T05:26:58.921Z,65.04
2019-02-21T05:31:05.540Z,65.53
2019-02-21T05:35:18.038Z,65.52
2019-02-21T05:39:24.569Z,65.46
2019-02-21T05:43:33.759Z,65.94
2019-02-21T05:47:40.276Z,65.64
2019-02-21T05:51:46.814Z,65.64
2019-02-21T05:55:53.355Z,65.51
2019-02-21T06:00:02.604Z,65.20
2019-02-21T06:04:12.651Z,65.17
2019-02-21T06:08:37.266Z,65.43
2019-02-21T06:12:46.747Z,66.17
2019-02-21T06:16:53.288Z,66.87
2019-02-21T06:20:59.873Z,66.98
2019-02-21T06:25:22.877Z,66.84
2019-02-21T06:29:29.428Z,66.80
2019-02-21T06:33:34.384Z,66.52
2019-02-21T06:37:39.297Z,66.75
2019-02-21T06:41:44.200Z,67.17
2019-02-21T06:45:49.109Z,66.98
2019-02-21T06:49:54.005Z,66.72
2019-02-21T06:53:58.900Z,66.81
2019-02-21T06:58:04.771Z,66.54
2019-02-21T07:02:09.684Z,67.11
2019-02-21T07:06:14.587Z,67.04
2019-02-21T07:10:19.488Z,67.47
2019-02-21T07:14:24.405Z,67.12
2019-02-21T07:18:29.295Z,66.47
2019-02-21T07:22:34.198Z,66.03
2019-02-21T07:26:39.098Z,66.14
2019-02-21T07:30:44.182Z,65.81
2019-02-21T07:34:49.067Z,65.62
2019-02-21T07:39:08.297Z,65.42
2019-02-21T07:43:00.574Z,65.34
2019-02-21T07:47:05.472Z,64.89
2019-02-21T07:51:10.377Z,65.50
2019-02-21T07:55:15.270Z,65.64
2019-02-21T07:59:20.170Z,64.60
2019-02-21T08:03:30.370Z,64.17
2019-02-21T08:07:31.694Z,63.47
2019-02-21T08:11:36.595Z,62.88
2019-02-21T08:15:41.489Z,62.56
2019-02-21T08:19:46.391Z,63.33
2019-02-21T08:23:51.321Z,62.66
2019-02-21T08:27:56.489Z,62.30
2019-02-21T08:32:01.405Z,62.01
2019-02-21T08:36:06.292Z,61.70
2019-02-21T08:40:11.220Z,61.37
2019-02-21T08:44:17.173Z,61.19
2019-02-21T08:48:22.082Z,61.32
2019-02-21T08:52:26.998Z,61.28
2019-02-21T08:56:31.884Z,60.92
2019-02-21T09:00:36.788Z,60.73
2019-02-21T09:04:41.703Z,60.45
2019-02-21T09:08:46.621Z,60.10
2019-02-21T09:12:51.523Z,60.17
2019-02-21T09:16:56.431Z,59.61
2019-02-21T09:21:01.321Z,59.08
2019-02-21T09:25:13.352Z,58.38
2019-02-21T09:29:18.270Z,57.69
2019-02-21T09:33:23.193Z,56.99
2019-02-21T09:37:28.103Z,55.51
2019-02-21T09:41:33.001Z,55.02
2019-02-21T09:45:38.004Z,55.10
2019-02-21T09:49:42.911Z,55.11
2019-02-21T09:53:47.833Z,54.64
2019-02-21T09:57:52.758Z,54.66
2019-02-21T10:01:57.871Z,54.59
2019-02-21T10:06:02.851Z,54.21
2019-02-21T10:10:12.909Z,53.71
2019-02-21T10:14:17.815Z,53.07
2019-02-21T10:18:22.722Z,52.93
2019-02-21T10:22:27.629Z,52.72
2019-02-21T10:26:32.549Z,52.45
2019-02-21T10:30:37.462Z,52.07
2019-02-21T10:34:43.247Z,51.76
2019-02-21T10:38:48.562Z,51.71
2019-02-21T10:42:53.494Z,51.56
2019-02-21T10:46:58.379Z,51.61
2019-02-21T10:51:03.294Z,51.60
2019-02-21T10:55:08.268Z,51.76
2019-02-21T10:59:13.195Z,51.44
2019-02-21T11:03:18.092Z,51.02
2019-02-21T11:07:23.012Z,50.28
2019-02-21T11:11:27.931Z,49.97
2019-02-21T11:15:32.841Z,50.12
2019-02-21T11:19:37.752Z,50.25
2019-02-21T11:23:42.663Z,50.33
2019-02-21T11:27:47.591Z,49.85
2019-02-21T11:31:52.507Z,49.59
2019-02-21T11:35:57.424Z,49.69
2019-02-21T11:40:02.328Z,48.10
2019-02-21T11:44:07.304Z,48.48
2019-02-21T11:48:12.226Z,48.74
2019-02-21T11:52:17.129Z,49.29
2019-02-21T11:56:22.040Z,49.41
2019-02-21T12:00:30.790Z,49.60
2019-02-21T12:04:35.699Z,49.80
2019-02-21T12:08:40.627Z,49.48
2019-02-21T12:12:45.544Z,49.05
2019-02-21T12:16:50.461Z,48.68
2019-02-21T12:20:55.397Z,48.77
2019-02-21T12:25:00.382Z,49.32
2019-02-21T12:29:05.293Z,49.19
2019-02-21T12:33:10.202Z,49.05
2019-02-21T12:37:15.119Z,48.68
2019-02-21T12:41:20.033Z,48.45
2019-02-21T12:45:30.051Z,48.46
2019-02-21T12:49:35.351Z,48.76
2019-02-21T12:53:40.257Z,49.21
2019-02-21T12:57:45.246Z,49.85
2019-02-21T13:01:50.154Z,49.77
2019-02-21T13:05:55.070Z,49.78
2019-02-21T13:09:59.988Z,49.51
2019-02-21T13:14:05.960Z,49.64
2019-02-21T13:18:15.959Z,49.38
2019-02-21T13:22:18.458Z,49.39
2019-02-21T13:26:23.370Z,49.55
2019-02-21T13:30:28.285Z,49.63
2019-02-21T13:34:33.203Z,49.73
2019-02-21T13:38:38.119Z,49.46
2019-02-21T13:42:43.029Z,49.40
2019-02-21T13:46:47.929Z,49.33
2019-02-21T13:50:52.857Z,48.85
2019-02-21T13:54:57.756Z,47.61
2019-02-21T13:59:02.669Z,47.51
2019-02-21T14:03:07.585Z,47.25
2019-02-21T14:07:12.489Z,47.42
2019-02-21T14:11:17.405Z,46.59
2019-02-21T14:15:27.838Z,46.42
2019-02-21T14:19:32.751Z,46.42
2019-02-21T14:23:37.659Z,45.86
2019-02-21T14:27:42.563Z,46.15
2019-02-21T14:31:47.475Z,45.96
2019-02-21T14:35:52.393Z,45.81
2019-02-21T14:39:57.301Z,45.85
2019-02-21T14:44:02.214Z,45.81
2019-02-21T14:48:07.106Z,45.88
2019-02-21T14:52:12.025Z,45.55
2019-02-21T14:56:16.953Z,45.51
2019-02-21T15:00:23.945Z,45.28
2019-02-21T15:04:28.853Z,45.73
2019-02-21T15:08:33.761Z,45.82
2019-02-21T15:12:39.640Z,46.00
2019-02-21T15:16:44.545Z,46.44
2019-02-21T15:20:49.455Z,46.58
2019-02-21T15:24:54.368Z,46.88
2019-02-21T15:29:00.026Z,47.16
2019-02-21T15:33:05.092Z,47.52
2019-02-21T15:37:10.012Z,47.83
2019-02-21T15:41:14.920Z,47.92
2019-02-21T15:45:24.213Z,48.06
2019-02-21T15:49:30.374Z,48.13
2019-02-21T15:53:35.288Z,48.29
2019-02-21T15:57:40.206Z,48.43
2019-02-21T16:01:47.790Z,48.54
2019-02-21T16:05:51.714Z,48.65
2019-02-21T16:09:56.615Z,48.84
2019-02-21T16:14:03.556Z,49.09
2019-02-21T16:18:08.138Z,49.26
2019-02-21T16:22:13.054Z,49.39
2019-02-21T16:26:17.961Z,49.54
2019-02-21T16:30:22.869Z,49.56
2019-02-21T16:34:27.777Z,49.76
2019-02-21T16:38:32.690Z,50.05
2019-02-21T16:42:37.589Z,50.16
2019-02-21T16:46:42.501Z,50.26
2019-02-21T16:50:48.533Z,50.44
2019-02-21T16:54:53.592Z,50.62
2019-02-21T16:58:58.508Z,50.83
2019-02-21T17:03:03.426Z,50.86
2019-02-21T17:07:15.133Z,51.04
2019-02-21T17:11:14.938Z,51.33
2019-02-21T17:15:19.925Z,50.94
2019-02-21T17:19:24.836Z,50.96
2019-02-21T17:23:30.813Z,51.65
2019-02-21T17:27:35.725Z,52.35
2019-02-21T17:31:40.639Z,52.88
2019-02-21T17:35:45.560Z,53.38
2019-02-21T17:39:50.466Z,53.74
2019-02-21T17:47:58.881Z,54.15
2019-02-21T17:52:03.927Z,54.44
2019-02-21T17:56:08.843Z,54.77
2019-02-21T18:00:17.340Z,54.87
2019-02-21T18:04:22.394Z,54.97
2019-02-21T18:08:27.311Z,55.18
2019-02-21T18:12:32.221Z,55.38
2019-02-21T18:16:37.125Z,55.61
2019-02-21T18:20:42.040Z,55.80
2019-02-21T18:24:46.958Z,55.76
2019-02-21T18:28:51.932Z,55.84
2019-02-21T18:32:58.429Z,56.07
2019-02-21T18:37:04.481Z,56.27
2019-02-21T18:41:09.465Z,56.30
2019-02-21T18:45:14.369Z,56.36
2019-02-21T18:49:19.309Z,56.63
2019-02-21T18:53:24.230Z,56.89
2019-02-21T18:57:29.116Z,57.05
2019-02-21T19:01:34.042Z,57.10
2019-02-21T19:05:38.955Z,57.47
2019-02-21T19:09:43.861Z,57.62
2019-02-21T19:13:48.824Z,57.91
2019-02-21T19:17:53.754Z,57.86
2019-02-21T19:21:58.667Z,58.00
2019-02-21T19:26:03.577Z,57.97
2019-02-21T19:30:14.526Z,58.06
2019-02-21T19:34:19.438Z,58.05
2019-02-21T19:38:24.338Z,58.80
2019-02-21T19:42:29.246Z,58.87
2019-02-21T19:46:35.231Z,58.92
2019-02-21T19:50:40.150Z,58.94
2019-02-21T19:54:45.047Z,59.01
2019-02-21T19:58:49.962Z,59.10
2019-02-21T20:02:55.155Z,59.19
2019-02-21T20:07:00.069Z,59.56
2019-02-21T20:11:04.998Z,59.55
2019-02-21T20:15:11.544Z,59.48
2019-02-21T20:19:17.408Z,59.64
2019-02-21T20:23:22.323Z,59.36
2019-02-21T20:27:27.314Z,59.15
2019-02-21T20:31:32.227Z,58.87
2019-02-21T20:35:37.169Z,59.00
2019-02-21T20:39:42.052Z,59.12
2019-02-21T20:43:46.958Z,59.29
2019-02-21T20:47:51.870Z,59.39
2019-02-21T20:51:56.788Z,59.40
2019-02-21T20:56:01.705Z,59.35
2019-02-21T21:00:12.046Z,59.29
2019-02-21T21:04:17.025Z,59.08
2019-02-21T21:08:21.942Z,59.09
2019-02-21T21:12:26.852Z,59.08
2019-02-21T21:16:31.798Z,59.12
2019-02-21T21:20:36.700Z,59.22
2019-02-21T21:24:42.582Z,59.01
2019-02-21T21:28:47.559Z,59.16
2019-02-21T21:32:52.410Z,59.13
2019-02-21T21:36:57.318Z,59.03
2019-02-21T21:41:02.229Z,58.90
2019-02-21T21:45:10.450Z,58.85
2019-02-21T21:49:15.358Z,58.98
2019-02-21T21:53:20.290Z,59.15
2019-02-21T21:57:25.188Z,59.68
2019-02-21T22:01:31.063Z,59.99
2019-02-21T22:05:35.983Z,60.08
2019-02-21T22:09:40.891Z,61.34
2019-02-21T22:13:45.800Z,60.00
2019-02-21T22:17:50.783Z,59.20
2019-02-21T22:21:55.687Z,59.66
2019-02-21T22:26:00.601Z,60.19
2019-02-21T22:30:08.798Z,60.50
2019-02-21T22:34:13.704Z,60.96
2019-02-21T22:38:18.630Z,61.22
2019-02-21T22:42:23.530Z,61.76
2019-02-21T22:46:28.442Z,61.95
2019-02-21T22:50:33.357Z,62.62
2019-02-21T22:54:38.261Z,62.96
2019-02-21T22:58:45.346Z,63.63
2019-02-21T23:02:49.843Z,64.45
2019-02-21T23:07:12.735Z,64.57
2019-02-21T23:11:17.636Z,64.82
2019-02-21T23:15:22.626Z,65.83
2019-02-21T23:19:27.530Z,66.18
2019-02-21T23:23:32.903Z,66.59
2019-02-21T23:27:37.791Z,66.71
2019-02-21T23:31:42.698Z,66.97
2019-02-21T23:35:47.605Z,66.95
2019-02-21T23:39:52.505Z,66.73
2019-02-21T23:43:57.493Z,66.76
2019-02-21T23:48:02.388Z,66.73
2019-02-21T23:52:08.362Z,66.89
2019-02-21T23:56:13.269Z,67.21
